Decoded Metar for KARB (ANN ARBOR in MI, USA) (IATA:ARB) | Meteo·Mobile Aviation Weather
aviador You're here:

KARB Decoded Metar

ANN ARBOR in MI, USA
Report Time2018-10-24 04:53:00
UTC Time2018-10-24 05:31:27
Flight Rules vfr VFR
Wind320° at 06 kt
W.Decomp.*RWY 30: 5.4 kt HW 2.5 kt RCW
RWY 24: 0.5 kt HW 6.0 kt RCW
W.Rank320° ranks 16
Current wind is below 320° avg. (8.1)
Visibility9999 m
Phenomena:N/A
Clouds:N/A
Expected CloudBase > 1,600 ft AGL from Temp-Dew spread
CeilingNone
Temp03°C (ISA -10)
Dew Point-1°C (75% RH)
AAT-1.3°C
QNH1026 hPa
Density Alt-794 ft
Elevation823 ft
Report Wrong Elevation
Raw Report
KARB 240453Z AUTO 32006KT 10SM CLR 03/M01 A3030 RMK AO2 SLP266
T00331006 401331006=

Extra information for KARB:More info

Metar Taf Metar & Taf Last 4 Metars F.Rules Stats Wind Profile Meteogram Temp Stats Airport Information Weather charts Add Link Nearby VenuesMetar ALERT Operation Metar Decoded Social comments

AIRNAV info for KARB